Map

Track Data

SID SEASON NUMBER BASIN SUBBASIN NAME ISO_TIME NATURE LAT LON WMO_WIND WMO_PRES WMO_AGENCY TRACK_TYPE DIST2LAND LANDFALL IFLAG USA_AGENCY USA_ATCF_ID USA_LAT USA_LON USA_RECORD USA_STATUS USA_WIND USA_PRES USA_SSHS USA_R34_NE USA_R34_SE USA_R34_SW USA_R34_NW USA_R50_NE USA_R50_SE USA_R50_SW USA_R50_NW USA_R64_NE USA_R64_SE USA_R64_SW USA_R64_NW USA_POCI USA_ROCI USA_RMW USA_EYE TOKYO_LAT TOKYO_LON TOKYO_GRADE TOKYO_WIND TOKYO_PRES TOKYO_R50_DIR TOKYO_R50_LONG TOKYO_R50_SHORT TOKYO_R30_DIR TOKYO_R30_LONG TOKYO_R30_SHORT TOKYO_LAND CMA_LAT CMA_LON CMA_CAT CMA_WIND CMA_PRES HKO_LAT HKO_LON HKO_CAT HKO_WIND HKO_PRES NEWDELHI_LAT NEWDELHI_LON NEWDELHI_GRADE NEWDELHI_WIND NEWDELHI_PRES NEWDELHI_CI NEWDELHI_DP NEWDELHI_POCI REUNION_LAT REUNION_LON REUNION_TYPE REUNION_WIND REUNION_PRES REUNION_TNUM REUNION_CI REUNION_RMW REUNION_R34_NE REUNION_R34_SE REUNION_R34_SW REUNION_R34_NW REUNION_R50_NE REUNION_R50_SE REUNION_R50_SW REUNION_R50_NW REUNION_R64_NE REUNION_R64_SE REUNION_R64_SW REUNION_R64_NW BOM_LAT BOM_LON BOM_TYPE BOM_WIND BOM_PRES BOM_TNUM BOM_CI BOM_RMW BOM_R34_NE BOM_R34_SE BOM_R34_SW BOM_R34_NW BOM_R50_NE BOM_R50_SE BOM_R50_SW BOM_R50_NW BOM_R64_NE BOM_R64_SE BOM_R64_SW BOM_R64_NW BOM_ROCI BOM_POCI BOM_EYE BOM_POS_METHOD BOM_PRES_METHOD NADI_LAT NADI_LON NADI_CAT NADI_WIND NADI_PRES WELLINGTON_LAT WELLINGTON_LON WELLINGTON_WIND WELLINGTON_PRES DS824_LAT DS824_LON DS824_STAGE DS824_WIND DS824_PRES TD9636_LAT TD9636_LON TD9636_STAGE TD9636_WIND TD9636_PRES TD9635_LAT TD9635_LON TD9635_WIND TD9635_PRES TD9635_ROCI NEUMANN_LAT NEUMANN_LON NEUMANN_CLASS NEUMANN_WIND NEUMANN_PRES MLC_LAT MLC_LON MLC_CLASS MLC_WIND MLC_PRES USA_GUST BOM_GUST BOM_GUST_PER REUNION_GUST REUNION_GUST_PER USA_SEAHGT USA_SEARAD_NE USA_SEARAD_SE USA_SEARAD_SW USA_SEARAD_NW STORM_SPEED STORM_DIR
2020254N12259 2020 70 EP MM KARINA 2020-09-10 00:00:00 NR 12.1000 -101.300 PROVISIONAL 543 543 O_____________ nhc_working_bt EP162020 12.1000 -101.300 DB 15 -3 8 269
2020254N12259 2020 70 EP MM KARINA 2020-09-10 03:00:00 NR 12.0926 -101.708 PROVISIONAL 558 558 P_____________ EP162020 12.0926 -101.708 DB 17 -3 8 270
2020254N12259 2020 70 EP MM KARINA 2020-09-10 06:00:00 NR 12.1000 -102.100 PROVISIONAL 576 576 O_____________ nhc_working_bt EP162020 12.1000 -102.100 DB 20 -3 7 273
2020254N12259 2020 70 EP MM KARINA 2020-09-10 09:00:00 NR 12.1350 -102.465 PROVISIONAL 596 592 P_____________ EP162020 12.1350 -102.465 DB 20 -3 7 278
2020254N12259 2020 70 EP MM KARINA 2020-09-10 12:00:00 NR 12.2000 -102.800 PROVISIONAL 599 595 O_____________ nhc_working_bt EP162020 12.2000 -102.800 DB 20 -3 6 284
2020254N12259 2020 70 EP MM KARINA 2020-09-10 15:00:00 NR 12.2924 -103.108 PROVISIONAL 599 597 P_____________ EP162020 12.2924 -103.108 DB 20 -3 6 289
2020254N12259 2020 70 EP MM KARINA 2020-09-10 18:00:00 NR 12.4000 -103.400 PROVISIONAL 601 600 O_____________ nhc_working_bt EP162020 12.4000 -103.400 DB 20 1009 -3 1010 180 90 6 288
2020254N12259 2020 70 EP MM KARINA 2020-09-10 21:00:00 NR 12.4699 -103.678 PROVISIONAL 605 605 P_____________ EP162020 12.4699 -103.678 DB 20 1008 -3 1009 180 90 6 289
2020254N12259 2020 70 EP MM KARINA 2020-09-11 00:00:00 NR 12.6000 -104.000 PROVISIONAL 611 602 O_____________ nhc_working_bt EP162020 12.6000 -104.000 DB 20 1008 -3 1009 180 90 9 299
2020254N12259 2020 70 EP MM KARINA 2020-09-11 03:00:00 NR 12.8776 -104.442 PROVISIONAL 602 588 P_____________ EP162020 12.8776 -104.442 DB 20 1008 -3 1009 180 90 11 304
2020254N12259 2020 70 EP MM KARINA 2020-09-11 06:00:00 NR 13.2000 -104.900 PROVISIONAL 588 567 O_____________ nhc_working_bt EP162020 13.2000 -104.900 DB 20 1008 -3 1009 180 90 10 308
2020254N12259 2020 70 EP MM KARINA 2020-09-11 09:00:00 NR 13.4647 -105.228 PROVISIONAL 567 557 P_____________ EP162020 13.4647 -105.228 DB 22 1007 -3 1009 180 90 8 306
2020254N12259 2020 70 EP MM KARINA 2020-09-11 12:00:00 NR 13.7000 -105.600 PROVISIONAL 561 555 O_____________ nhc_working_bt EP162020 13.7000 -105.600 DB 25 1007 -3 1009 180 90 10 296
2020254N12259 2020 70 EP MM KARINA 2020-09-11 15:00:00 NR 13.9076 -106.163 PROVISIONAL 570 566 P_____________ EP162020 13.9076 -106.163 DB 25 1007 -3 1009 180 85 12 289
2020254N12259 2020 70 EP MM KARINA 2020-09-11 18:00:00 NR 14.1000 -106.800 PROVISIONAL 587 587 O_____________ nhc_working_bt EP162020 14.1000 -106.800 DB 25 1007 -3 1009 180 80 13 288
2020254N12259 2020 70 EP MM KARINA 2020-09-11 21:00:00 NR 14.2999 -107.400 PROVISIONAL 611 611 P_____________ EP162020 14.2999 -107.400 DB 25 1006 -3 1008 180 80 12 289
2020254N12259 2020 70 EP MM KARINA 2020-09-12 00:00:00 DS 14.5000 -108.000 PROVISIONAL 626 626 O_____________ nhc_working_bt EP162020 14.5000 -108.000 LO 25 1006 -3 1008 180 80 12 289
2020254N12259 2020 70 EP MM KARINA 2020-09-12 03:00:00 DS 14.6923 -108.593 PROVISIONAL 645 645 P_____________ EP162020 14.6923 -108.593 LO 25 1006 -3 1008 180 80 12 289
2020254N12259 2020 70 EP MM KARINA 2020-09-12 06:00:00 DS 14.9000 -109.200 PROVISIONAL 671 670 O_____________ nhc_working_bt EP162020 14.9000 -109.200 LO 25 1006 -3 1008 180 80 13 291
2020254N12259 2020 70 EP MM KARINA 2020-09-12 09:00:00 DS 15.1497 -109.828 PROVISIONAL 700 700 P_____________ EP162020 15.1497 -109.828 LO 25 1006 -3 1008 180 80 14 292
2020254N12259 2020 70 EP MM KARINA 2020-09-12 12:00:00 DS 15.4000 -110.500 PROVISIONAL 731 731 O_____________ nhc_working_bt EP162020 15.4000 -110.500 LO 25 1006 -3 1008 180 80 15 287
2020254N12259 2020 70 EP MM KARINA 2020-09-12 15:00:00 DS 15.5929 -111.303 PROVISIONAL 783 783 P_____________ EP162020 15.5929 -111.303 LO 25 1006 -3 1008 180 80 15 285
2020254N12259 2020 70 EP MM KARINA 2020-09-12 18:00:00 DS 15.8000 -112.000 PROVISIONAL 821 797 O_____________ nhc_working_bt EP162020 15.8000 -112.000 LO 25 1006 -3 1008 180 80 11 296
2020254N12259 2020 70 EP MM KARINA 2020-09-12 21:00:00 DS 16.0845 -112.353 PROVISIONAL 801 776 P_____________ EP162020 16.0845 -112.353 LO 27 1005 -3 1008 180 80 8 316
2020254N12259 2020 70 EP MM KARINA 2020-09-13 00:00:00 TS 16.4000 -112.600 PROVISIONAL 776 752 O_____________ nhc_working_bt EP162020 16.4000 -112.600 TD 30 1004 -1 1008 180 80 40 9 320
2020254N12259 2020 70 EP MM KARINA 2020-09-13 03:00:00 TS 16.7512 -112.945 PROVISIONAL 746 739 P_____________ EP162020 16.7149 -112.963 TD 32 1003 -1 1008 180 80 10 313
2020254N12259 2020 70 EP MM KARINA 2020-09-13 06:00:00 TS 17.0600 -113.340 PROVISIONAL 734 734 O_____________ nhc_working_bt EP162020 17.0000 -113.400 TS 35 1003 0 80 1008 180 80 45 12 80 10 302
2020254N12259 2020 70 EP MM KARINA 2020-09-13 09:00:00 TS 17.2682 -113.813 PROVISIONAL 741 741 P_____________ EP162020 17.2300 -113.928 TS 37 1002 0 80 1007 195 80 10 289
2020254N12259 2020 70 EP MM KARINA 2020-09-13 12:00:00 TS 17.4000 -114.367 PROVISIONAL 767 767 O_____________ nhc_working_bt EP162020 17.4000 -114.500 TS 40 1001 0 80 1007 210 80 50 11 282
2020254N12259 2020 70 EP MM KARINA 2020-09-13 15:00:00 TS 17.4975 -114.979 PROVISIONAL 797 797 P_____________ EP162020 17.5073 -115.050 TS 40 1001 0 105 1007 225 70 12 280
2020254N12259 2020 70 EP MM KARINA 2020-09-13 18:00:00 TS 17.6000 -115.600 PROVISIONAL 831 831 O_____________ nhc_working_bt EP162020 17.6000 -115.600 TS 40 1001 0 30 100 130 1007 240 60 50 12 60 60 12 285
2020254N12259 2020 70 EP MM KARINA 2020-09-13 21:00:00 TS 17.8106 -116.165 PROVISIONAL 861 861 P_____________ EP162020 17.7725 -116.165 TS 40 1001 0 30 100 130 1007 255 60 12 60 60 11 289
2020254N12259 2020 70 EP MM KARINA 2020-09-14 00:00:00 TS 17.9667 -116.700 PROVISIONAL 886 886 O_____________ nhc_working_bt EP162020 17.9000 -116.700 TS 40 1001 0 30 100 130 1007 270 60 50 12 60 60 30 11 275
2020254N12259 2020 70 EP MM KARINA 2020-09-14 03:00:00 TS 17.9060 -117.272 PROVISIONAL 931 931 P_____________ EP162020 17.8725 -117.210 TS 40 1001 0 30 100 130 1007 270 60 12 90 75 10 260
2020254N12259 2020 70 EP MM KARINA 2020-09-14 06:00:00 TS 17.8000 -117.733 PROVISIONAL 965 965 O_____________ nhc_working_bt EP162020 17.8000 -117.600 TS 40 1001 0 30 100 130 1007 270 60 50 12 120 90 60 7 260
2020254N12259 2020 70 EP MM KARINA 2020-09-14 09:00:00 TS 17.7956 -117.964 PROVISIONAL 984 981 P_____________ EP162020 17.7622 -117.773 TS 40 1001 0 30 100 130 1007 270 60 12 150 120 4 281
2020254N12259 2020 70 EP MM KARINA 2020-09-14 12:00:00 TS 17.8667 -118.100 PROVISIONAL 981 979 O_____________ nhc_working_bt EP162020 17.8000 -117.900 TS 40 1001 0 30 100 130 1007 270 60 50 12 180 150 120 4 305
2020254N12259 2020 70 EP MM KARINA 2020-09-14 15:00:00 TS 18.0007 -118.268 PROVISIONAL 986 975 P_____________ EP162020 17.9625 -118.163 TS 42 999 0 55 140 155 1007 270 65 12 180 150 120 5 311
2020254N12259 2020 70 EP MM KARINA 2020-09-14 18:00:00 TS 18.2000 -118.500 PROVISIONAL 982 981 O_____________ nhc_working_bt EP162020 18.2000 -118.500 TS 45 998 0 80 180 180 1007 270 70 50 12 180 150 120 7 307
2020254N12259 2020 70 EP MM KARINA 2020-09-14 21:00:00 TS 18.4225 -118.863 PROVISIONAL 994 986 P_____________ EP162020 18.4275 -118.878 TS 47 997 0 80 180 180 1008 280 75 12 180 210 120 9 303
2020254N12259 2020 70 EP MM KARINA 2020-09-15 00:00:00 TS 18.7000 -119.300 PROVISIONAL 1000 1000 O_____________ nhc_working_bt EP162020 18.7000 -119.300 TS 50 996 0 80 180 180 50 40 1009 290 80 55 12 180 270 120 60 11 306
2020254N12259 2020 70 EP MM KARINA 2020-09-15 03:00:00 TS 19.0376 -119.767 PROVISIONAL 1016 1009 P_____________ EP162020 19.0425 -119.757 TS 50 996 0 80 165 165 50 40 1010 280 60 12 180 270 120 60 11 309
2020254N12259 2020 70 EP MM KARINA 2020-09-15 06:00:00 TS 19.4000 -120.200 PROVISIONAL 1021 1015 O_____________ nhc_working_bt EP162020 19.4000 -120.200 TS 50 996 0 80 150 150 50 40 1011 270 40 60 12 180 270 120 60 10 317
2020254N12259 2020 70 EP MM KARINA 2020-09-15 09:00:00 TS 19.7555 -120.481 PROVISIONAL 1019 1016 P_____________ EP162020 19.7073 -120.558 TS 50 996 0 80 120 105 50 40 1011 270 40 12 210 255 135 67 9 321
2020254N12259 2020 70 EP MM KARINA 2020-09-15 12:00:00 TS 20.0667 -120.767 PROVISIONAL 1026 1024 O_____________ nhc_working_bt EP162020 20.0000 -120.900 TS 50 996 0 80 90 60 50 40 1011 270 40 60 12 240 240 150 75 9 307
2020254N12259 2020 70 EP MM KARINA 2020-09-15 15:00:00 TS 20.2693 -121.209 PROVISIONAL 1035 1035 P_____________ EP162020 20.2924 -121.285 TS 50 997 0 80 90 60 45 40 1012 285 40 12 240 240 135 82 10 295
2020254N12259 2020 70 EP MM KARINA 2020-09-15 18:00:00 TS 20.4667 -121.700 PROVISIONAL 1052 1052 O_____________ nhc_working_bt EP162020 20.6000 -121.700 TS 50 998 0 80 90 60 40 40 20 20 1014 300 40 60 12 240 240 120 90 10 299
2020254N12259 2020 70 EP MM KARINA 2020-09-15 21:00:00 TS 20.7783 -122.170 PROVISIONAL 1060 1057 P_____________ EP162020 20.9501 -122.165 TS 50 998 0 80 75 55 60 40 20 20 1013 300 40 11 307
2020254N12259 2020 70 EP MM KARINA 2020-09-16 00:00:00 TS 21.1000 -122.600 PROVISIONAL 1065 1064 O_____________ nhc_working_bt EP162020 21.3000 -122.600 TS 50 998 0 80 60 50 80 40 20 20 40 1012 300 40 60 9 308
2020254N12259 2020 70 EP MM KARINA 2020-09-16 03:00:00 TS 21.3432 -122.956 PROVISIONAL 1079 1071 P_____________ EP162020 21.6149 -122.938 TS 45 1000 0 80 70 1012 300 40 8 307
2020254N12259 2020 70 EP MM KARINA 2020-09-16 06:00:00 TS 21.5667 -123.267 PROVISIONAL 1079 1079 O_____________ nhc_working_bt EP162020 21.9000 -123.200 TS 40 1002 0 80 60 1012 300 40 50 12 240 210 120 120 7 307
2020254N12259 2020 70 EP MM KARINA 2020-09-16 09:00:00 TS 21.7967 -123.594 PROVISIONAL 1089 1089 P_____________ EP162020 22.1649 -123.408 TS 37 1003 0 80 60 1012 300 40 12 210 180 105 120 8 312
2020254N12259 2020 70 EP MM KARINA 2020-09-16 12:00:00 TS 22.0667 -123.867 PROVISIONAL 1093 1081 O_____________ nhc_working_bt EP162020 22.4000 -123.600 TS 35 1004 0 80 60 1012 300 40 45 12 180 150 90 120 8 329
2020254N12259 2020 70 EP MM KARINA 2020-09-16 15:00:00 TS 22.4482 -124.022 PROVISIONAL 1081 1065 P_____________ EP162020 22.6150 -123.835 TS 32 1005 -1 1012 270 65 12 180 112 75 120 8 339
2020254N12259 2020 70 EP MM KARINA 2020-09-16 18:00:00 TS 22.8000 -124.167 PROVISIONAL 1073 1067 O_____________ nhc_working_bt EP162020 22.8000 -124.100 TD 30 1006 -1 1013 240 90 40 12 180 75 60 120 7 327
2020254N12259 2020 70 EP MM KARINA 2020-09-16 21:00:00 TS 22.9994 -124.402 PROVISIONAL 1079 1079 P_____________ EP162020 22.9576 -124.392 TD 30 1006 -1 1013 210 90 12 150 75 60 120 6 301
2020254N12259 2020 70 EP MM KARINA 2020-09-17 00:00:00 DS 23.1000 -124.700 PROVISIONAL 1100 O_____________ nhc_working_bt EP162020 23.1000 -124.700 LO 30 1006 -3 1013 180 90 40 12 120 75 60 120 6 290

About IBTrACS Database

This database is a web-friendly format of International Best Track Archive for Climate Stewardship (IBTrACS), a global best track data archive curated by NOAA dating back to 1842.

Updated: 2021-10-27